createdAt,value
2022-09-28T00:02:21.110Z,99300.47
2022-09-28T00:04:47.991Z,99300.06
2022-09-28T00:07:15.097Z,99297.47
2022-09-28T00:09:41.825Z,99296.84
2022-09-28T00:12:08.646Z,99304.81
2022-09-28T00:14:35.426Z,99327.03
2022-09-28T00:17:02.088Z,99330.69
2022-09-28T00:19:28.855Z,99333.00
2022-09-28T00:21:55.569Z,99333.72
2022-09-28T00:24:27.352Z,99336.44
2022-09-28T00:26:56.755Z,99336.78
2022-09-28T00:29:32.091Z,99340.19
2022-09-28T00:32:04.875Z,99338.44
2022-09-28T00:34:37.255Z,99331.59
2022-09-28T00:37:05.279Z,99336.31
2022-09-28T00:39:31.967Z,99331.56
2022-09-28T00:41:59.087Z,99328.66
2022-09-28T00:44:25.657Z,99336.06
2022-09-28T00:47:07.684Z,99335.09
2022-09-28T00:49:44.574Z,99330.09
2022-09-28T00:52:16.118Z,99328.16
2022-09-28T00:54:43.931Z,99319.25
2022-09-28T00:57:11.130Z,99314.41
2022-09-28T00:59:38.004Z,99309.66
2022-09-28T01:02:04.932Z,99309.66
2022-09-28T01:04:31.735Z,99320.94
2022-09-28T01:06:59.272Z,99310.78
2022-09-28T01:09:27.531Z,99297.66
2022-09-28T01:11:55.285Z,99303.31
2022-09-28T01:14:24.711Z,99312.78
2022-09-28T01:17:04.964Z,99311.31
2022-09-28T01:19:40.017Z,99306.16
2022-09-28T01:22:19.233Z,99314.38
2022-09-28T01:24:47.130Z,99319.81
2022-09-28T01:27:19.764Z,99317.06
2022-09-28T01:30:04.847Z,99317.38
2022-09-28T01:32:31.683Z,99314.06
2022-09-28T01:35:11.949Z,99322.19
2022-09-28T01:37:47.721Z,99318.66
2022-09-28T01:40:16.081Z,99315.41
2022-09-28T01:42:44.495Z,99321.91
2022-09-28T01:45:17.086Z,99310.09
2022-09-28T01:47:46.136Z,99306.06
2022-09-28T01:50:23.369Z,99305.22
2022-09-28T01:52:59.549Z,99301.94
2022-09-28T01:55:34.005Z,99306.84
2022-09-28T01:58:12.873Z,99298.41
2022-09-28T02:00:42.941Z,99299.91
2022-09-28T02:03:16.915Z,99301.94
2022-09-28T02:05:58.252Z,99309.94
2022-09-28T02:08:33.679Z,99318.75
2022-09-28T02:11:06.547Z,99315.53
2022-09-28T02:13:35.904Z,99320.22
2022-09-28T02:16:31.405Z,99318.06
2022-09-28T02:18:58.414Z,99318.69
2022-09-28T02:21:40.055Z,99304.47
2022-09-28T02:24:21.724Z,99303.13
2022-09-28T02:26:50.681Z,99305.09
2022-09-28T02:29:17.454Z,99298.84
2022-09-28T02:31:44.374Z,99302.03
2022-09-28T02:34:11.273Z,99300.19
2022-09-28T02:36:38.267Z,99288.00
2022-09-28T02:39:05.326Z,99305.69
2022-09-28T02:42:10.597Z,99299.63
2022-09-28T02:44:52.084Z,99296.31
2022-09-28T02:47:26.001Z,99299.91
2022-09-28T02:50:13.140Z,99298.59
2022-09-28T02:53:02.026Z,99304.25
2022-09-28T02:55:50.437Z,99310.16
2022-09-28T02:58:47.922Z,99325.16
2022-09-28T03:01:33.058Z,99318.66
2022-09-28T03:04:44.561Z,99320.69
2022-09-28T03:07:27.888Z,99322.59
2022-09-28T03:10:10.073Z,99330.16
2022-09-28T03:12:37.439Z,99333.72
2022-09-28T03:15:13.837Z,99328.75
2022-09-28T03:17:41.464Z,99331.31
2022-09-28T03:20:10.657Z,99323.53
2022-09-28T03:22:38.094Z,99318.47
2022-09-28T03:25:06.516Z,99316.97
2022-09-28T03:27:34.194Z,99316.00
2022-09-28T03:30:01.590Z,99324.81
2022-09-28T03:32:28.859Z,99325.41
2022-09-28T03:34:55.991Z,99326.78
2022-09-28T03:37:23.087Z,99320.69
2022-09-28T03:39:49.962Z,99323.41
2022-09-28T03:42:16.737Z,99318.25
2022-09-28T03:44:47.743Z,99325.22
2022-09-28T03:47:15.937Z,99322.16
2022-09-28T03:49:42.663Z,99321.19
2022-09-28T03:52:10.191Z,99318.66
2022-09-28T03:54:37.636Z,99313.06
2022-09-28T03:57:05.304Z,99317.47
2022-09-28T03:59:32.034Z,99313.94
2022-09-28T04:01:59.059Z,99307.53
2022-09-28T04:04:25.718Z,99310.84
2022-09-28T04:06:52.706Z,99303.47
2022-09-28T04:09:19.796Z,99304.66
2022-09-28T04:12:02.895Z,99304.47
2022-09-28T04:14:30.624Z,99311.50
2022-09-28T04:16:57.451Z,99306.97
2022-09-28T04:19:26.779Z,99312.69
2022-09-28T04:22:11.790Z,99314.03
2022-09-28T04:24:39.223Z,99319.50
2022-09-28T04:27:25.245Z,99319.81
2022-09-28T04:29:52.020Z,99311.19
2022-09-28T04:32:18.819Z,99299.59
2022-09-28T04:34:45.484Z,99307.59
2022-09-28T04:37:12.145Z,99317.56
2022-09-28T04:39:42.298Z,99317.09
2022-09-28T04:42:12.302Z,99309.47
2022-09-28T04:44:39.247Z,99315.88
2022-09-28T04:47:08.950Z,99320.72
2022-09-28T04:49:54.195Z,99315.06
2022-09-28T04:52:27.821Z,99316.28
2022-09-28T04:54:54.550Z,99323.06
2022-09-28T04:57:21.541Z,99326.03
2022-09-28T04:59:50.596Z,99313.44
2022-09-28T05:02:18.323Z,99321.84
2022-09-28T05:05:05.756Z,99329.00
2022-09-28T05:10:41.004Z,99324.72
2022-09-28T05:13:08.976Z,99323.47
2022-09-28T05:15:36.467Z,99327.78
2022-09-28T05:18:03.967Z,99320.88
2022-09-28T05:20:42.310Z,99325.97
2022-09-28T05:23:11.441Z,99321.78
2022-09-28T05:25:39.770Z,99328.25
2022-09-28T05:31:05.348Z,99332.72
2022-09-28T05:33:55.382Z,99323.16
2022-09-28T05:36:26.787Z,99325.69
2022-09-28T05:38:53.920Z,99326.38
2022-09-28T05:41:20.628Z,99334.91
2022-09-28T05:43:47.469Z,99322.16
2022-09-28T05:46:14.686Z,99320.59
2022-09-28T05:48:41.900Z,99321.38
2022-09-28T05:51:10.393Z,99329.94
2022-09-28T05:53:37.299Z,99320.25
2022-09-28T05:56:04.881Z,99315.28
2022-09-28T05:58:33.216Z,99325.22
2022-09-28T06:01:00.164Z,99333.44
2022-09-28T06:03:27.200Z,99330.41
2022-09-28T06:05:54.253Z,99324.00
2022-09-28T06:08:21.889Z,99329.09
2022-09-28T06:11:00.749Z,99327.22
2022-09-28T06:13:30.171Z,99328.88
2022-09-28T06:15:57.005Z,99329.72
2022-09-28T06:18:23.878Z,99340.41
2022-09-28T06:21:13.002Z,99335.72
2022-09-28T06:23:48.964Z,99342.38
2022-09-28T06:26:17.687Z,99348.09
2022-09-28T06:28:45.185Z,99344.84
2022-09-28T06:31:12.174Z,99350.69
2022-09-28T06:33:48.609Z,99341.72
2022-09-28T06:36:15.509Z,99354.69
2022-09-28T06:38:42.350Z,99358.97
2022-09-28T06:41:10.829Z,99351.47
2022-09-28T06:43:39.718Z,99361.13
2022-09-28T06:46:13.560Z,99358.41
2022-09-28T06:49:00.686Z,99362.06
2022-09-28T06:51:46.352Z,99360.66
2022-09-28T06:54:25.727Z,99368.25
2022-09-28T06:57:08.010Z,99368.53
2022-09-28T06:59:34.904Z,99373.28
2022-09-28T07:02:01.825Z,99374.75
2022-09-28T07:04:47.279Z,99379.78
2022-09-28T07:07:33.064Z,99379.88
2022-09-28T07:10:30.308Z,99388.69
2022-09-28T07:13:47.968Z,99381.50
2022-09-28T07:16:09.095Z,99391.47
2022-09-28T07:18:35.999Z,99394.97
2022-09-28T07:21:04.167Z,99388.97
2022-09-28T07:23:32.394Z,99394.97
2022-09-28T07:26:33.228Z,99394.44
2022-09-28T07:28:59.927Z,99394.00
2022-09-28T07:31:34.628Z,99411.75
2022-09-28T07:34:23.152Z,99419.22
2022-09-28T07:37:12.516Z,99421.22
2022-09-28T07:39:58.525Z,99430.38
2022-09-28T07:42:30.045Z,99440.47
2022-09-28T07:44:58.124Z,99435.25
2022-09-28T07:47:34.650Z,99442.19
2022-09-28T07:50:21.230Z,99431.56
2022-09-28T07:53:13.859Z,99439.94
2022-09-28T07:56:07.144Z,99441.94
2022-09-28T07:58:40.856Z,99445.59
2022-09-28T08:01:26.279Z,99441.28
2022-09-28T08:03:56.629Z,99445.75
2022-09-28T08:06:23.966Z,99439.19
2022-09-28T08:08:52.893Z,99433.69
2022-09-28T08:11:21.401Z,99442.06
2022-09-28T08:14:27.112Z,99437.75
2022-09-28T08:17:02.113Z,99437.47
2022-09-28T08:20:13.174Z,99435.69
2022-09-28T08:22:40.389Z,99437.00
2022-09-28T08:25:07.570Z,99443.53
2022-09-28T08:27:34.664Z,99452.28
2022-09-28T08:30:01.880Z,99455.19
2022-09-28T08:33:07.828Z,99452.22
2022-09-28T08:35:44.006Z,99453.75
2022-09-28T08:38:15.323Z,99450.84
2022-09-28T08:41:58.768Z,99456.75
2022-09-28T08:44:48.653Z,99467.44
2022-09-28T08:47:48.614Z,99468.22
2022-09-28T08:50:33.454Z,99477.44
2022-09-28T08:53:54.220Z,99471.81
2022-09-28T08:56:31.874Z,99477.09
2022-09-28T08:59:03.153Z,99469.06
2022-09-28T09:01:40.360Z,99478.41
2022-09-28T09:04:11.273Z,99480.00
2022-09-28T09:07:20.031Z,99479.91
2022-09-28T09:09:57.264Z,99487.25
2022-09-28T09:12:36.919Z,99487.81
2022-09-28T09:15:13.335Z,99483.38
2022-09-28T09:18:08.726Z,99492.78
2022-09-28T09:21:15.660Z,99488.53
2022-09-28T09:23:55.415Z,99486.78
2022-09-28T09:26:40.524Z,99485.47
2022-09-28T09:29:22.964Z,99481.69
2022-09-28T09:32:11.454Z,99483.19
2022-09-28T09:34:53.212Z,99480.09
2022-09-28T09:37:54.160Z,99481.34
2022-09-28T09:41:16.598Z,99477.31
2022-09-28T09:44:28.063Z,99482.66
2022-09-28T09:47:34.469Z,99486.38
2022-09-28T09:50:29.854Z,99477.19
2022-09-28T09:52:59.127Z,99488.31
2022-09-28T09:55:30.470Z,99485.06
2022-09-28T09:58:32.044Z,99489.06
2022-09-28T10:01:13.422Z,99481.72
2022-09-28T10:04:00.799Z,99484.00
2022-09-28T10:06:33.784Z,99487.34
2022-09-28T10:09:13.136Z,99484.44
2022-09-28T10:11:45.211Z,99486.66
2022-09-28T10:14:16.731Z,99475.34
2022-09-28T10:16:51.156Z,99478.34
2022-09-28T10:19:37.815Z,99478.19
2022-09-28T10:22:25.150Z,99485.34
2022-09-28T10:24:57.524Z,99477.91
2022-09-28T10:27:28.782Z,99486.47
2022-09-28T10:30:09.317Z,99478.38
2022-09-28T10:32:47.731Z,99479.06
2022-09-28T10:35:31.300Z,99474.72
2022-09-28T10:38:06.340Z,99480.84
2022-09-28T10:40:59.502Z,99473.31
2022-09-28T10:43:39.734Z,99478.19
2022-09-28T10:46:13.689Z,99478.06
2022-09-28T10:48:54.357Z,99469.59
2022-09-28T10:51:41.738Z,99471.22
2022-09-28T10:54:22.898Z,99482.84
2022-09-28T10:56:52.745Z,99482.53
2022-09-28T10:59:30.727Z,99470.75
2022-09-28T11:02:21.723Z,99472.22
2022-09-28T11:04:53.670Z,99470.66
2022-09-28T11:07:26.761Z,99477.19
2022-09-28T11:09:54.817Z,99475.69
2022-09-28T11:12:23.898Z,99488.97
2022-09-28T11:14:57.560Z,99483.91
2022-09-28T11:17:30.365Z,99485.25
2022-09-28T11:19:59.745Z,99496.34
2022-09-28T11:22:30.194Z,99504.78
2022-09-28T11:25:20.855Z,99505.00
2022-09-28T11:27:51.450Z,99499.41
2022-09-28T11:30:54.107Z,99510.16
2022-09-28T11:33:33.084Z,99505.31
2022-09-28T11:36:31.825Z,99500.28
2022-09-28T11:39:11.991Z,99499.38
2022-09-28T11:42:07.925Z,99489.50
2022-09-28T11:44:41.424Z,99490.41
2022-09-28T11:47:49.044Z,99486.03
2022-09-28T11:50:25.796Z,99491.41
2022-09-28T11:53:17.925Z,99489.94
2022-09-28T11:56:09.049Z,99488.72
2022-09-28T11:58:45.998Z,99486.94
2022-09-28T12:01:24.103Z,99487.13
2022-09-28T12:04:36.954Z,99480.94
2022-09-28T12:07:10.116Z,99482.81
2022-09-28T12:09:49.830Z,99479.28
2022-09-28T12:12:28.422Z,99478.78
2022-09-28T12:15:13.213Z,99476.41
2022-09-28T12:17:45.446Z,99479.84
2022-09-28T12:20:30.981Z,99471.91
2022-09-28T12:23:21.311Z,99473.38
2022-09-28T12:25:59.754Z,99475.59
2022-09-28T12:28:40.288Z,99464.28
2022-09-28T12:31:37.669Z,99463.84
2022-09-28T12:34:04.484Z,99470.88
2022-09-28T12:36:42.957Z,99465.63
2022-09-28T12:39:24.266Z,99463.06
2022-09-28T12:42:05.133Z,99466.81
2022-09-28T12:44:43.963Z,99467.25
2022-09-28T12:47:31.991Z,99461.66
2022-09-28T12:50:37.526Z,99471.06
2022-09-28T12:53:29.709Z,99471.94
2022-09-28T12:56:11.851Z,99466.06
2022-09-28T12:58:59.928Z,99479.13
2022-09-28T13:01:44.183Z,99477.84
2022-09-28T13:04:13.337Z,99484.44
2022-09-28T13:06:49.938Z,99484.56
2022-09-28T13:09:20.959Z,99482.63
2022-09-28T13:12:17.528Z,99481.72
2022-09-28T13:14:58.059Z,99476.06
2022-09-28T13:17:29.813Z,99479.50
2022-09-28T13:20:08.926Z,99478.34
2022-09-28T13:23:04.973Z,99480.41
2022-09-28T13:25:34.296Z,99474.47
2022-09-28T13:28:05.582Z,99468.63
2022-09-28T13:30:35.382Z,99478.00
2022-09-28T13:33:04.253Z,99474.19
2022-09-28T13:35:32.074Z,99471.81
2022-09-28T13:38:25.524Z,99473.47
2022-09-28T13:41:04.712Z,99472.72
2022-09-28T13:43:50.099Z,99466.44
2022-09-28T13:46:19.948Z,99471.91
2022-09-28T13:49:06.520Z,99465.25
2022-09-28T13:51:59.873Z,99469.50
2022-09-28T13:54:54.787Z,99474.69
2022-09-28T13:57:30.235Z,99462.16
2022-09-28T14:00:07.272Z,99468.03
2022-09-28T14:02:43.787Z,99467.28
2022-09-28T14:05:32.092Z,99468.56
2022-09-28T14:08:17.544Z,99466.72
2022-09-28T14:10:54.311Z,99458.13
2022-09-28T14:13:59.436Z,99469.19
2022-09-28T14:16:31.919Z,99471.97
2022-09-28T14:19:03.203Z,99470.00
2022-09-28T14:21:33.011Z,99475.91
2022-09-28T14:24:27.490Z,99473.13
2022-09-28T14:27:04.024Z,99471.56
2022-09-28T14:29:32.916Z,99462.63
2022-09-28T14:32:10.587Z,99464.19
2022-09-28T14:34:38.492Z,99466.09
2022-09-28T14:37:47.094Z,99467.50
2022-09-28T14:40:49.409Z,99471.38
2022-09-28T14:43:27.131Z,99470.59
2022-09-28T14:46:12.400Z,99473.34
2022-09-28T14:48:54.524Z,99475.69
2022-09-28T14:51:27.235Z,99481.94
2022-09-28T14:53:56.894Z,99480.41
2022-09-28T14:56:24.151Z,99464.81
2022-09-28T14:58:55.360Z,99480.88
2022-09-28T15:01:30.609Z,99473.06
2022-09-28T15:04:04.672Z,99480.16
2022-09-28T15:06:46.061Z,99474.16
2022-09-28T15:09:28.581Z,99481.53
2022-09-28T15:12:04.426Z,99477.19
2022-09-28T15:14:33.462Z,99476.53
2022-09-28T15:17:03.531Z,99486.75
2022-09-28T15:19:38.643Z,99487.56
2022-09-28T15:22:15.006Z,99488.56
2022-09-28T15:24:46.445Z,99479.31
2022-09-28T15:27:19.328Z,99489.38
2022-09-28T15:30:02.944Z,99495.50
2022-09-28T15:32:33.215Z,99484.97
2022-09-28T15:35:14.567Z,99492.78
2022-09-28T15:37:42.175Z,99480.09
2022-09-28T15:40:14.435Z,99484.69
2022-09-28T15:42:41.190Z,99488.91
2022-09-28T15:45:14.040Z,99487.34
2022-09-28T15:47:43.603Z,99484.25
2022-09-28T15:50:25.182Z,99485.31
2022-09-28T15:52:58.008Z,99494.34
2022-09-28T15:55:32.581Z,99500.75
2022-09-28T15:58:19.240Z,99500.13
2022-09-28T16:00:47.486Z,99491.13
2022-09-28T16:03:17.172Z,99505.66
2022-09-28T16:05:47.113Z,99505.34
2022-09-28T16:08:21.357Z,99497.38
2022-09-28T16:10:56.719Z,99501.19
2022-09-28T16:13:24.382Z,99497.34
2022-09-28T16:15:58.181Z,99501.00
2022-09-28T16:18:26.281Z,99503.31
2022-09-28T16:20:57.249Z,99492.75
2022-09-28T16:23:27.494Z,99491.31
2022-09-28T16:25:58.790Z,99502.69
2022-09-28T16:28:35.195Z,99497.63
2022-09-28T16:31:27.229Z,99502.75
2022-09-28T16:33:58.936Z,99506.09
2022-09-28T16:36:29.707Z,99505.59
2022-09-28T16:38:56.783Z,99508.03
2022-09-28T16:41:26.681Z,99506.06
2022-09-28T16:43:59.207Z,99505.19
2022-09-28T16:46:31.692Z,99509.25
2022-09-28T16:49:02.478Z,99514.38
2022-09-28T16:51:29.446Z,99514.72
2022-09-28T16:54:32.729Z,99513.72
2022-09-28T16:57:00.832Z,99518.75
2022-09-28T16:59:28.486Z,99507.25
2022-09-28T17:01:56.669Z,99519.75
2022-09-28T17:04:24.487Z,99517.88
2022-09-28T17:06:53.693Z,99521.44
2022-09-28T17:09:21.549Z,99526.75
2022-09-28T17:11:48.466Z,99527.91
2022-09-28T17:14:15.188Z,99532.19
2022-09-28T17:19:29.872Z,99517.03
2022-09-28T17:21:56.527Z,99522.00
2022-09-28T17:24:24.388Z,99525.47
2022-09-28T17:26:52.109Z,99520.38
2022-09-28T17:29:19.133Z,99521.03
2022-09-28T17:31:46.732Z,99530.41
2022-09-28T17:34:16.269Z,99531.03
2022-09-28T17:36:43.910Z,99538.22
2022-09-28T17:39:15.922Z,99537.50
2022-09-28T17:41:43.092Z,99528.44
2022-09-28T17:44:10.122Z,99530.34
2022-09-28T17:46:39.459Z,99535.84
2022-09-28T17:49:07.965Z,99538.34
2022-09-28T17:51:37.908Z,99541.50
2022-09-28T17:54:06.084Z,99544.34
2022-09-28T17:56:33.122Z,99532.22
2022-09-28T17:59:03.287Z,99539.78
2022-09-28T18:01:34.305Z,99539.88
2022-09-28T18:04:03.290Z,99541.06
2022-09-28T18:06:30.168Z,99544.22
2022-09-28T18:08:56.864Z,99542.66
2022-09-28T18:11:23.579Z,99544.28
2022-09-28T18:13:50.485Z,99551.59
2022-09-28T18:16:17.478Z,99555.97
2022-09-28T18:18:47.754Z,99551.78
2022-09-28T18:21:14.910Z,99545.63
2022-09-28T18:23:41.773Z,99551.03
2022-09-28T18:26:12.588Z,99561.03
2022-09-28T18:28:39.778Z,99558.91
2022-09-28T18:31:11.042Z,99558.78
2022-09-28T18:33:38.025Z,99563.91
2022-09-28T18:36:05.919Z,99568.38
2022-09-28T18:38:35.239Z,99569.56
2022-09-28T18:41:09.219Z,99562.25
2022-09-28T18:43:37.177Z,99565.66
2022-09-28T18:46:09.382Z,99569.00
2022-09-28T18:48:37.614Z,99569.06
2022-09-28T18:51:08.987Z,99569.28
2022-09-28T18:53:37.196Z,99569.91
2022-09-28T18:56:12.374Z,99575.34
2022-09-28T18:58:40.913Z,99572.13
2022-09-28T19:04:00.455Z,99574.81
2022-09-28T19:06:27.855Z,99578.47
2022-09-28T19:08:58.548Z,99573.84
2022-09-28T19:11:25.993Z,99581.53
2022-09-28T19:13:53.778Z,99588.06
2022-09-28T19:16:25.136Z,99582.13
2022-09-28T19:18:53.579Z,99585.16
2022-09-28T19:21:21.220Z,99578.97
2022-09-28T19:23:52.050Z,99574.22
2022-09-28T19:26:21.345Z,99586.97
2022-09-28T19:28:48.546Z,99583.28
2022-09-28T19:31:16.117Z,99583.72
2022-09-28T19:33:46.875Z,99591.94
2022-09-28T19:36:23.652Z,99589.41
2022-09-28T19:38:51.929Z,99585.94
2022-09-28T19:41:42.689Z,99593.78
2022-09-28T19:44:27.802Z,99587.56
2022-09-28T19:47:07.138Z,99591.50
2022-09-28T19:49:38.154Z,99588.69
2022-09-28T19:52:14.182Z,99591.25
2022-09-28T19:55:04.659Z,99583.97
2022-09-28T19:57:32.643Z,99585.88
2022-09-28T20:00:03.191Z,99584.06
2022-09-28T20:02:34.696Z,99589.72
2022-09-28T20:05:01.493Z,99587.84
2022-09-28T20:07:32.659Z,99605.47
2022-09-28T20:09:59.388Z,99596.88
2022-09-28T20:12:26.517Z,99592.44
2022-09-28T20:14:53.342Z,99595.03
2022-09-28T20:17:21.654Z,99593.06
2022-09-28T20:19:48.658Z,99598.50
2022-09-28T20:22:16.918Z,99589.28
2022-09-28T20:24:43.718Z,99586.50
2022-09-28T20:27:10.378Z,99590.50
2022-09-28T20:29:37.085Z,99594.81
2022-09-28T20:32:04.169Z,99598.66
2022-09-28T20:34:30.927Z,99601.00
2022-09-28T20:36:57.750Z,99598.22
2022-09-28T20:39:25.337Z,99596.47
2022-09-28T20:41:52.132Z,99592.34
2022-09-28T20:44:19.193Z,99602.50
2022-09-28T20:46:49.977Z,99596.84
2022-09-28T20:49:16.743Z,99603.69
2022-09-28T20:51:43.542Z,99603.63
2022-09-28T20:54:10.473Z,99598.63
2022-09-28T20:56:39.832Z,99595.84
2022-09-28T20:59:12.555Z,99594.38
2022-09-28T21:01:40.372Z,99597.44
2022-09-28T21:04:08.717Z,99603.72
2022-09-28T21:06:45.445Z,99604.25
2022-09-28T21:09:24.043Z,99604.34
2022-09-28T21:11:56.816Z,99611.16
2022-09-28T21:14:23.801Z,99610.84
2022-09-28T21:16:50.838Z,99613.72
2022-09-28T21:19:17.751Z,99611.78
2022-09-28T21:21:44.784Z,99607.88
2022-09-28T21:24:11.572Z,99606.38
2022-09-28T21:26:39.306Z,99603.31
2022-09-28T21:29:10.910Z,99609.97
2022-09-28T21:31:42.688Z,99616.19
2022-09-28T21:34:13.474Z,99614.53
2022-09-28T21:36:43.531Z,99614.91
2022-09-28T21:39:10.699Z,99609.41
2022-09-28T21:41:37.893Z,99609.59
2022-09-28T21:44:05.802Z,99604.69
2022-09-28T21:46:56.185Z,99615.19
2022-09-28T21:49:23.009Z,99619.31
2022-09-28T21:51:49.909Z,99610.09
2022-09-28T21:54:16.644Z,99617.38
2022-09-28T21:56:43.513Z,99617.72
2022-09-28T21:59:10.586Z,99627.16
2022-09-28T22:01:39.422Z,99620.31
2022-09-28T22:04:06.303Z,99624.25
2022-09-28T22:06:33.110Z,99616.88
2022-09-28T22:08:59.981Z,99625.34
2022-09-28T22:11:28.801Z,99627.59
2022-09-28T22:14:05.890Z,99627.09
2022-09-28T22:16:38.999Z,99630.94
2022-09-28T22:19:08.007Z,99627.47
2022-09-28T22:21:36.014Z,99629.50
2022-09-28T22:24:06.810Z,99629.59
2022-09-28T22:26:36.269Z,99639.47
2022-09-28T22:29:09.545Z,99632.94
2022-09-28T22:31:39.430Z,99631.09
2022-09-28T22:34:07.024Z,99634.25
2022-09-28T22:36:34.097Z,99642.03
2022-09-28T22:39:01.807Z,99634.09
2022-09-28T22:41:28.558Z,99639.50
2022-09-28T22:43:55.257Z,99636.50
2022-09-28T22:46:26.437Z,99636.00
2022-09-28T22:48:57.928Z,99645.03
2022-09-28T22:51:27.189Z,99635.69
2022-09-28T22:53:54.182Z,99645.47
2022-09-28T22:56:20.834Z,99642.56
2022-09-28T22:58:48.368Z,99647.06
2022-09-28T23:01:26.668Z,99643.22
2022-09-28T23:03:54.893Z,99653.31
2022-09-28T23:06:24.348Z,99650.84
2022-09-28T23:08:51.447Z,99654.75
2022-09-28T23:11:18.688Z,99648.19
2022-09-28T23:13:56.666Z,99644.88
2022-09-28T23:16:25.803Z,99638.78
2022-09-28T23:18:53.913Z,99637.91
2022-09-28T23:21:23.174Z,99644.34
2022-09-28T23:23:55.501Z,99636.78
2022-09-28T23:26:24.737Z,99640.19
2022-09-28T23:28:52.706Z,99638.34
2022-09-28T23:31:38.917Z,99642.16
2022-09-28T23:34:06.674Z,99635.78
2022-09-28T23:36:33.863Z,99640.19
2022-09-28T23:39:01.199Z,99635.47
2022-09-28T23:41:27.978Z,99636.81
2022-09-28T23:43:54.771Z,99627.25
2022-09-28T23:46:21.553Z,99628.28
2022-09-28T23:48:49.339Z,99625.78
2022-09-28T23:51:16.058Z,99624.84
2022-09-28T23:53:46.117Z,99622.94
2022-09-28T23:56:14.422Z,99621.28
2022-09-28T23:58:41.330Z,99621.03
